^^
Weather Station Historical Data
 
Daily Summary for July 20, 2024 Units:  English    Metric   Both
Daily Weekly Monthly Yearly
  Current: High: Low: Average:
Temperature: 70.2 °F 70.2 °F 57.8 °F 63.4 °F
Dew Point: 51.3 °F 52.9 °F 47.9 °F 50.2 °F
Humidity: 51.1% 70.1% 50.7% 62%
Wind Speed: 4.8mph 5.1mph 0.3mph 2.1mph
Wind Gust: 10.3mph 11.4mph - -
WindNorth - - SE
Pressure: 30.36 in 30.36 in 30.34 in -
Precipitation: 0.00 in      
 
 
Tabular Data for July 20, 2024
Time Temperature Dew Point Pressure Wind Wind Speed Wind Gust Humidity Rainfall Rate (Hourly) solar
00:04 64.7 °F 51.4 °F 30.35 in SW 1.5 mph 3.4 mph 61.8% 0.00 in 0 W/m2
00:09 64.1 °F 52.7 °F 30.35 in SW 2.4 mph 5.8 mph 66.4% 0.00 in 0 W/m2
00:14 63.6 °F 52.8 °F 30.35 in SSW 2.5 mph 5.8 mph 68.1% 0.00 in 0 W/m2
00:19 63.3 °F 52.9 °F 30.36 in SSW 1.9 mph 5.8 mph 68.6% 0.00 in 0 W/m2
00:24 63.3 °F 52.4 °F 30.35 in SSW 1.8 mph 4.5 mph 67.7% 0.00 in 0 W/m2
00:29 63.6 °F 52.2 °F 30.36 in South 1.4 mph 4.5 mph 66.3% 0.00 in 0 W/m2
00:34 63.9 °F 52 °F 30.35 in SSW 1.3 mph 2.2 mph 65% 0.00 in 0 W/m2
00:39 64.1 °F 51.7 °F 30.36 in SSW 1.5 mph 3.4 mph 64% 0.00 in 0 W/m2
00:44 64.2 °F 51.7 °F 30.36 in SSW 0.8 mph 3.4 mph 63.8% 0.00 in 0 W/m2
00:49 64.4 °F 51.7 °F 30.36 in SSW 1 mph 3.4 mph 63.3% 0.00 in 0 W/m2
00:54 64.2 °F 51.8 °F 30.36 in SW 0.9 mph 2.2 mph 63.9% 0.00 in 0 W/m2
00:59 64.3 °F 51.8 °F 30.35 in SW 1.6 mph 2.2 mph 63.7% 0.00 in 0 W/m2
01:04 64.2 °F 51.8 °F 30.36 in SW 1.4 mph 3.4 mph 64% 0.00 in 0 W/m2
01:09 64.2 °F 52 °F 30.36 in SSW 1.7 mph 4.5 mph 64.6% 0.00 in 0 W/m2
01:14 64.2 °F 51.9 °F 30.35 in SSW 2.4 mph 5.8 mph 64.2% 0.00 in 0 W/m2
01:19 64.2 °F 51.8 °F 30.36 in SSW 2.9 mph 5.8 mph 64% 0.00 in 0 W/m2
01:24 64.2 °F 51.8 °F 30.35 in SSW 2.9 mph 6.9 mph 64% 0.00 in 0 W/m2
01:29 64.2 °F 51.8 °F 30.36 in SSW 2.9 mph 6.9 mph 64% 0.00 in 0 W/m2
01:34 63.9 °F 51.6 °F 30.36 in SSW 2.4 mph 5.8 mph 64.2% 0.00 in 0 W/m2
01:39 63.7 °F 51.8 °F 30.36 in South 2.3 mph 4.5 mph 65% 0.00 in 0 W/m2
01:44 63.7 °F 51.8 °F 30.36 in SSW 2.9 mph 5.8 mph 65% 0.00 in 0 W/m2
01:49 63.4 °F 51.9 °F 30.36 in SSW 2.2 mph 5.8 mph 65.9% 0.00 in 0 W/m2
01:54 63.1 °F 51.9 °F 30.35 in SSE 2.3 mph 4.5 mph 66.7% 0.00 in 0 W/m2
01:59 63.1 °F 51.6 °F 30.36 in SSE 2.2 mph 5.8 mph 66.1% 0.00 in 0 W/m2
02:04 63.2 °F 51.7 °F 30.36 in SSW 1.3 mph 3.4 mph 66% 0.00 in 0 W/m2
02:09 63.1 °F 51.8 °F 30.36 in SSW 0.7 mph 2.2 mph 66.4% 0.00 in 0 W/m2
02:14 63.2 °F 51.8 °F 30.36 in SSW 0.9 mph 2.2 mph 66.2% 0.00 in 0 W/m2
02:19 63.1 °F 51.9 °F 30.36 in SW 0.5 mph 2.2 mph 66.8% 0.00 in 0 W/m2
02:24 63 °F 51.9 °F 30.36 in SW 0.6 mph 2.2 mph 67% 0.00 in 0 W/m2
02:29 62.9 °F 51.7 °F 30.36 in SW 1 mph 2.2 mph 67% 0.00 in 0 W/m2
02:34 63 °F 51.5 °F 30.36 in SW 1.8 mph 3.4 mph 66.3% 0.00 in 0 W/m2
02:39 63.1 °F 51.4 °F 30.36 in SSW 1.3 mph 4.5 mph 65.5% 0.00 in 0 W/m2
02:44 63 °F 51.4 °F 30.36 in South 1.3 mph 2.2 mph 66% 0.00 in 0 W/m2
02:49 62.8 °F 51.1 °F 30.36 in South 1.5 mph 3.4 mph 65.5% 0.00 in 0 W/m2
02:54 62.8 °F 50.9 °F 30.36 in South 1.5 mph 3.4 mph 65% 0.00 in 0 W/m2
02:59 62.8 °F 50.9 °F 30.36 in SSE 1.6 mph 3.4 mph 65% 0.00 in 0 W/m2
03:04 62.7 °F 50.7 °F 30.36 in SE 2.3 mph 4.5 mph 64.8% 0.00 in 0 W/m2
03:09 62.8 °F 50.7 °F 30.36 in SSE 1.1 mph 4.5 mph 64.6% 0.00 in 0 W/m2
03:14 62.6 °F 50.6 °F 30.36 in South 0.3 mph 2.2 mph 64.7% 0.00 in 0 W/m2
03:19 62.5 °F 50.3 °F 30.36 in SE 0.9 mph 2.2 mph 64% 0.00 in 0 W/m2
03:24 62.3 °F 50.6 °F 30.36 in SE 0.9 mph 2.2 mph 65.6% 0.00 in 0 W/m2
03:29 61.7 °F 50.2 °F 30.36 in South 0.4 mph 2.2 mph 66% 0.00 in 0 W/m2
03:34 61.5 °F 50.2 °F 30.35 in South 0.9 mph 2.2 mph 66.6% 0.00 in 0 W/m2
03:39 61 °F 50.3 °F 30.35 in South 1.2 mph 2.2 mph 67.9% 0.00 in 0 W/m2
03:44 61.2 °F 50.1 °F 30.35 in South 1.3 mph 2.2 mph 66.5% 0.00 in 0 W/m2
03:49 61.3 °F 50 °F 30.35 in SE 2 mph 4.5 mph 66.1% 0.00 in 0 W/m2
03:54 61.4 °F 49.8 °F 30.35 in ESE 3 mph 5.8 mph 65.7% 0.00 in 0 W/m2
03:59 61.2 °F 49.3 °F 30.35 in ESE 2.7 mph 5.8 mph 64.9% 0.00 in 0 W/m2
04:04 61.2 °F 48.8 °F 30.35 in ESE 2.8 mph 5.8 mph 63.7% 0.00 in 0 W/m2
04:09 61.3 °F 48.7 °F 30.35 in ESE 2.5 mph 4.5 mph 63% 0.00 in 0 W/m2
04:14 61.3 °F 48.7 °F 30.35 in East 2.6 mph 4.5 mph 63% 0.00 in 0 W/m2
04:19 61.3 °F 48.6 °F 30.35 in East 2.9 mph 4.5 mph 62.9% 0.00 in 0 W/m2
04:24 61.3 °F 48.2 °F 30.34 in East 3 mph 4.5 mph 62% 0.00 in 0 W/m2
04:29 61.2 °F 48.4 °F 30.35 in ESE 2.2 mph 4.5 mph 62.5% 0.00 in 0 W/m2
04:34 61.3 °F 48.3 °F 30.34 in SE 3 mph 5.8 mph 62.4% 0.00 in 0 W/m2
04:39 61.2 °F 48.3 °F 30.35 in ESE 2.6 mph 4.5 mph 62.4% 0.00 in 0 W/m2
04:44 61.5 °F 48.4 °F 30.34 in East 3.5 mph 5.8 mph 62% 0.00 in 0 W/m2
04:49 61.7 °F 48.6 °F 30.35 in ESE 1.9 mph 5.8 mph 62% 0.00 in 0 W/m2
04:54 61.2 °F 48.4 °F 30.35 in East 1.2 mph 3.4 mph 62.5% 0.00 in 0 W/m2
04:59 60.9 °F 48.3 °F 30.35 in East 1.4 mph 3.4 mph 63% 0.00 in 0 W/m2
05:04 60.4 °F 48.4 °F 30.35 in ENE 1.1 mph 2.2 mph 64.5% 0.00 in 0 W/m2
05:09 60.1 °F 47.9 °F 30.35 in East 1.9 mph 4.5 mph 64.2% 0.00 in 0 W/m2
05:14 60.3 °F 48.4 °F 30.35 in North 0.5 mph 3.4 mph 64.6% 0.00 in 0 W/m2
05:19 59.4 °F 48.4 °F 30.35 in NNW 1.4 mph 3.4 mph 66.9% 0.00 in 0 W/m2
05:24 58.9 °F 48.3 °F 30.36 in NNW 1.4 mph 3.4 mph 68% 0.00 in 0 W/m2
05:29 58.5 °F 48.3 °F 30.36 in NNW 2.8 mph 4.5 mph 68.8% 0.00 in 0 W/m2
05:34 58.5 °F 48.4 °F 30.36 in NNW 1.7 mph 3.4 mph 69% 0.00 in 0 W/m2
05:39 58.4 °F 48.3 °F 30.36 in NNW 0.9 mph 2.2 mph 69% 0.00 in 0.1 W/m2
05:44 58.4 °F 48.4 °F 30.36 in NNW 0.7 mph 2.2 mph 69.2% 0.00 in 0.2 W/m2
05:49 58 °F 48.3 °F 30.35 in NNW 0.8 mph 2.2 mph 70.1% 0.00 in 0.5 W/m2
05:54 57.8 °F 48.1 °F 30.36 in NNE 1.3 mph 2.2 mph 70.1% 0.00 in 1.2 W/m2
05:59 58.8 °F 48.1 °F 30.35 in NE 1.8 mph 3.4 mph 67.7% 0.00 in 2.3 W/m2
06:04 59.5 °F 48.4 °F 30.35 in NE 1.8 mph 4.5 mph 66.6% 0.00 in 4.2 W/m2
06:09 59.7 °F 48.4 °F 30.36 in NNE 1.4 mph 3.4 mph 66% 0.00 in 6.9 W/m2
06:14 60 °F 48.7 °F 30.36 in NNE 1.2 mph 3.4 mph 66% 0.00 in 10.1 W/m2
06:19 60.4 °F 48.7 °F 30.35 in NNE 1.3 mph 2.2 mph 65.2% 0.00 in 13.6 W/m2
06:24 60.7 °F 48.8 °F 30.35 in NE 1.4 mph 3.4 mph 65% 0.00 in 17.2 W/m2
06:29 60.6 °F 48.7 °F 30.36 in NE 1.8 mph 4.5 mph 65% 0.00 in 21.2 W/m2
06:34 61.1 °F 48.6 °F 30.35 in NE 2.2 mph 4.5 mph 63.5% 0.00 in 26 W/m2
06:39 62.1 °F 48.6 °F 30.36 in NE 3 mph 4.5 mph 61.4% 0.00 in 30.5 W/m2
06:44 62.5 °F 48.7 °F 30.36 in NE 2.7 mph 5.8 mph 60.7% 0.00 in 36.2 W/m2
06:49 62.9 °F 48.8 °F 30.36 in NE 2.1 mph 4.5 mph 60.1% 0.00 in 42.7 W/m2
06:54 63.2 °F 49 °F 30.36 in NE 2.4 mph 4.5 mph 59.7% 0.00 in 49.7 W/m2
06:59 63.7 °F 49.1 °F 30.36 in NE 2.8 mph 4.5 mph 59% 0.00 in 56.9 W/m2
07:04 64 °F 49.1 °F 30.36 in NE 2.6 mph 5.8 mph 58.4% 0.00 in 65.3 W/m2
07:09 64.7 °F 49.3 °F 30.36 in NE 2.5 mph 5.8 mph 57.2% 0.00 in 75.2 W/m2
07:14 65.2 °F 49.4 °F 30.36 in NNE 2.7 mph 5.8 mph 56.5% 0.00 in 86.2 W/m2
07:19 65.6 °F 49.5 °F 30.36 in NNE 2.2 mph 5.8 mph 56% 0.00 in 97.3 W/m2
07:24 65.9 °F 49.8 °F 30.36 in NE 2.2 mph 4.5 mph 55.7% 0.00 in 110.2 W/m2
07:29 66.5 °F 49.8 °F 30.36 in NE 2.3 mph 5.8 mph 54.9% 0.00 in 122.6 W/m2
07:34 66.7 °F 49.9 °F 30.36 in NNE 2 mph 5.8 mph 54.8% 0.00 in 136.5 W/m2
07:39 67.1 °F 50.1 °F 30.36 in NNE 2.6 mph 4.5 mph 54.2% 0.00 in 151.6 W/m2
07:44 67.2 °F 50 °F 30.36 in NNE 2 mph 4.5 mph 54% 0.00 in 165.8 W/m2
07:49 68 °F 50.2 °F 30.36 in North 1.7 mph 4.5 mph 52.9% 0.00 in 182 W/m2
07:54 68.2 °F 50.3 °F 30.36 in North 2.3 mph 5.8 mph 52.6% 0.00 in 196.9 W/m2
07:59 68.3 °F 50.5 °F 30.36 in North 1.8 mph 4.5 mph 52.8% 0.00 in 214.7 W/m2
08:04 68.6 °F 50.5 °F 30.36 in NNE 2.5 mph 6.9 mph 52.4% 0.00 in 230.6 W/m2
08:09 68.8 °F 50.6 °F 30.36 in North 2.4 mph 5.8 mph 52.3% 0.00 in 244.5 W/m2
08:14 69 °F 50.5 °F 30.36 in NNE 3.6 mph 6.9 mph 51.8% 0.00 in 262 W/m2
08:19 68.4 °F 50.2 °F 30.36 in North 3.8 mph 6.9 mph 52.2% 0.00 in 279.8 W/m2
08:24 68.4 °F 50.4 °F 30.36 in NNE 4 mph 8.1 mph 52.8% 0.00 in 293.3 W/m2
08:29 68.5 °F 50.7 °F 30.36 in NNE 3.6 mph 8.1 mph 53.1% 0.00 in 308.6 W/m2
08:34 68.8 °F 51 °F 30.36 in NNE 3.8 mph 8.1 mph 53.2% 0.00 in 325.1 W/m2
08:39 69.2 °F 51.2 °F 30.36 in NNE 3.6 mph 6.9 mph 52.8% 0.00 in 340.7 W/m2
08:44 69.7 °F 51.2 °F 30.36 in North 3 mph 6.9 mph 51.8% 0.00 in 355.5 W/m2
08:49 69.9 °F 51.1 °F 30.36 in North 4.7 mph 8.1 mph 51.2% 0.00 in 376.4 W/m2
08:54 69.9 °F 50.8 °F 30.36 in North 4.6 mph 11.4 mph 50.7% 0.00 in 390.7 W/m2
08:59 70.1 °F 51.1 °F 30.36 in North 5.1 mph 10.3 mph 50.9% 0.00 in 407 W/m2
09:04 70.2 °F 51.3 °F 30.36 in North 4.6 mph 9.2 mph 51.1% 0.00 in 424.1 W/m2
09:09 70.2 °F 51.3 °F 30.36 in North 4.8 mph 10.3 mph 51.1% 0.00 in 439 W/m2
Santa Fe, NM, USA
Compliments of Weather Underground - 4 mb